Time;durP1;ratioP1;P1;durP2;ratioP2;P2;SDS_P1;SDS_P2;PMS_P1;PMS_P2;Temp;Humidity;BMP_temperature;BMP_pressure;BME280_temperature;BME280_humidity;BME280_pressure;Samples;Min_cycle;Max_cycle;Signal;HPM_P1;HPM_P2
2022/09/14 00:00:49;;;;;;;3.53;2.50;;;20.50;99.90;;;;;;5011605;28;20502;-70
2022/09/14 00:03:17;;;;;;;2.67;2.27;;;20.50;99.90;;;;;;5009524;28;20458;-69
2022/09/14 00:05:45;;;;;;;1.80;1.70;;;20.50;99.90;;;;;;5010478;28;20447;-70
2022/09/14 00:08:13;;;;;;;2.43;2.23;;;20.60;99.90;;;;;;5011325;28;20450;-70
2022/09/14 00:10:41;;;;;;;2.53;2.23;;;20.50;99.90;;;;;;5007705;28;20476;-70
2022/09/14 00:13:09;;;;;;;3.00;2.50;;;20.50;99.90;;;;;;5010881;28;20582;-70
2022/09/14 00:15:37;;;;;;;2.00;1.90;;;20.40;99.90;;;;;;5009851;28;20480;-70
2022/09/14 00:18:05;;;;;;;2.53;2.10;;;20.40;99.90;;;;;;5022085;28;21030;-70
2022/09/14 00:20:32;;;;;;;2.67;2.23;;;20.40;99.90;;;;;;5008957;28;20524;-67
2022/09/14 00:23:00;;;;;;;2.60;2.40;;;20.40;99.90;;;;;;5010896;28;20945;-67
2022/09/14 00:25:28;;;;;;;2.57;2.10;;;20.40;99.90;;;;;;5013701;28;20472;-67
2022/09/14 00:27:56;;;;;;;2.30;2.10;;;20.50;99.90;;;;;;5008070;28;20498;-67
2022/09/14 00:30:23;;;;;;;2.20;2.10;;;20.40;99.90;;;;;;5008087;28;20459;-70
2022/09/14 00:32:51;;;;;;;3.97;2.30;;;20.40;99.90;;;;;;5010051;28;20476;-70
2022/09/14 00:35:19;;;;;;;2.60;2.40;;;20.40;99.90;;;;;;5016470;28;20465;-70
2022/09/14 00:37:48;;;;;;;2.70;2.50;;;20.30;99.90;;;;;;5008376;28;20555;-69
2022/09/14 00:40:17;;;;;;;2.13;2.03;;;20.30;99.90;;;;;;5003030;28;20534;-70
2022/09/14 00:42:44;;;;;;;3.67;2.50;;;20.30;99.90;;;;;;5004914;28;20461;-69
2022/09/14 00:45:17;;;;;;;3.00;2.40;;;20.30;99.90;;;;;;5016086;28;21191;-70
2022/09/14 00:47:44;;;;;;;2.47;2.27;;;20.40;99.90;;;;;;5011710;28;20461;-70
2022/09/14 00:50:12;;;;;;;2.40;2.17;;;20.40;99.90;;;;;;5017376;28;20542;-70
2022/09/14 00:52:41;;;;;;;3.07;2.37;;;20.40;99.90;;;;;;5017060;28;20448;-70
2022/09/14 00:55:11;;;;;;;4.50;2.43;;;20.40;99.90;;;;;;5009761;28;20498;-70
2022/09/14 00:57:42;;;;;;;3.10;2.20;;;20.40;99.90;;;;;;5009544;28;20449;-70
2022/09/14 01:00:11;;;;;;;2.27;2.17;;;20.40;99.90;;;;;;5010189;28;20992;-70
2022/09/14 01:02:39;;;;;;;2.73;2.40;;;20.40;99.90;;;;;;5012393;28;20459;-70
2022/09/14 01:05:07;;;;;;;2.57;2.33;;;20.50;99.90;;;;;;5008561;28;20492;-70
2022/09/14 01:07:46;;;;;;;2.30;2.10;;;20.50;99.90;;;;;;5008277;28;20867;-70
2022/09/14 01:10:25;;;;;;;2.90;2.00;;;20.60;99.90;;;;;;5005191;28;20539;-70
2022/09/14 01:13:06;;;;;;;2.13;2.03;;;20.60;99.90;;;;;;5010702;28;20535;-70
2022/09/14 01:15:42;;;;;;;3.40;2.30;;;20.70;99.90;;;;;;5009604;28;20471;-70
2022/09/14 01:18:16;;;;;;;2.50;2.30;;;20.70;99.90;;;;;;5007017;28;20498;-70
2022/09/14 01:20:49;;;;;;;2.27;2.07;;;20.70;99.90;;;;;;5005441;28;20486;-70
2022/09/14 01:23:22;;;;;;;2.10;2.00;;;20.80;99.90;;;;;;5004464;28;20596;-70
2022/09/14 01:26:13;;;;;;;2.60;1.80;;;20.80;99.90;;;;;;5011228;28;20673;-70
2022/09/14 01:28:45;;;;;;;3.53;2.43;;;20.80;99.90;;;;;;5025074;28;20546;-70
2022/09/14 01:31:16;;;;;;;2.37;2.17;;;20.90;99.90;;;;;;5010946;28;20501;-70
2022/09/14 01:33:51;;;;;;;3.53;2.53;;;20.80;99.90;;;;;;5010273;28;20547;-70
2022/09/14 01:36:20;;;;;;;4.13;2.40;;;20.80;99.90;;;;;;5012488;28;20460;-70
2022/09/14 01:38:51;;;;;;;2.50;2.30;;;20.60;99.90;;;;;;5019759;28;20858;-69
2022/09/14 01:41:23;;;;;;;2.90;2.43;;;20.50;99.90;;;;;;5016913;28;21243;-70
2022/09/14 01:43:57;;;;;;;5.87;3.70;;;20.20;99.90;;;;;;5017303;28;20851;-72
2022/09/14 01:46:26;;;;;;;9.27;4.70;;;19.90;99.90;;;;;;5016036;28;20812;-75
2022/09/14 01:48:57;;;;;;;7.93;4.80;;;19.40;99.90;;;;;;5013284;28;21161;-75
2022/09/14 01:51:29;;;;;;;8.10;4.33;;;18.90;99.90;;;;;;5009703;28;20485;-74
2022/09/14 01:54:01;;;;;;;6.13;4.50;;;18.50;99.90;;;;;;5006078;28;20557;-73
2022/09/14 01:56:35;;;;;;;6.73;4.10;;;18.10;99.90;;;;;;5015286;28;20492;-74
2022/09/14 01:59:08;;;;;;;6.50;4.30;;;18.00;99.90;;;;;;5010117;28;20464;-74
2022/09/14 02:01:39;;;;;;;10.37;4.50;;;18.00;99.90;;;;;;5008430;28;20933;-74
2022/09/14 02:04:11;;;;;;;9.47;6.27;;;17.90;99.90;;;;;;5004626;28;20492;-74
2022/09/14 02:06:42;;;;;;;8.67;7.70;;;17.90;99.90;;;;;;5004384;28;20465;-73
2022/09/14 02:09:13;;;;;;;7.80;6.80;;;17.80;99.90;;;;;;5011939;28;20543;-73
2022/09/14 02:11:40;;;;;;;9.97;6.63;;;17.70;99.90;;;;;;5013740;28;20579;-74
2022/09/14 02:14:09;;;;;;;7.73;6.93;;;17.60;99.90;;;;;;5010331;28;20996;-74
2022/09/14 02:16:36;;;;;;;8.77;7.37;;;17.50;99.90;;;;;;5008988;28;20461;-73
2022/09/14 02:19:04;;;;;;;8.23;7.43;;;17.40;99.90;;;;;;5009604;28;20544;-74
2022/09/14 02:21:32;;;;;;;9.53;7.07;;;17.40;99.90;;;;;;5008700;28;20473;-74
2022/09/14 02:24:00;;;;;;;7.37;6.67;;;17.40;99.90;;;;;;5011587;28;20898;-74
2022/09/14 02:26:28;;;;;;;7.50;6.07;;;17.30;99.90;;;;;;5011586;28;20925;-74
2022/09/14 02:28:55;;;;;;;6.43;5.83;;;17.50;99.90;;;;;;5014779;28;20489;-74
2022/09/14 02:31:33;;;;;;;7.57;6.70;;;17.40;99.90;;;;;;5009880;28;20991;-75
2022/09/14 02:34:09;;;;;;;9.23;5.90;;;17.40;99.90;;;;;;5010597;28;20467;-74
2022/09/14 02:36:46;;;;;;;7.80;7.00;;;17.40;99.90;;;;;;5011269;28;20496;-73
2022/09/14 02:39:23;;;;;;;7.60;6.90;;;17.40;99.90;;;;;;5012698;28;20540;-73
2022/09/14 02:41:54;;;;;;;6.83;6.30;;;17.50;99.90;;;;;;5009382;28;20559;-73
2022/09/14 02:44:29;;;;;;;6.90;5.57;;;17.60;99.90;;;;;;5011526;28;20554;-73
2022/09/14 02:47:03;;;;;;;13.03;11.80;;;17.60;99.90;;;;;;5009651;28;21005;-73
2022/09/14 02:49:40;;;;;;;5.77;5.27;;;17.70;99.90;;;;;;5010370;28;20452;-73
2022/09/14 02:52:13;;;;;;;7.03;5.20;;;17.70;99.90;;;;;;5008451;28;20499;-73
2022/09/14 02:54:50;;;;;;;6.77;6.13;;;17.70;99.90;;;;;;5011381;28;20871;-73
2022/09/14 02:57:17;;;;;;;5.60;5.17;;;17.70;99.90;;;;;;5010451;28;20982;-73
2022/09/14 02:59:45;;;;;;;6.50;6.00;;;17.70;99.90;;;;;;5007714;28;20492;-73
2022/09/14 03:02:13;;;;;;;6.77;6.17;;;17.70;99.90;;;;;;5010060;28;20464;-74
2022/09/14 03:04:41;;;;;;;6.53;5.40;;;17.70;99.90;;;;;;5010285;28;21030;-74
2022/09/14 03:07:08;;;;;;;6.43;5.83;;;17.70;99.90;;;;;;5010394;28;20479;-74
2022/09/14 03:09:35;;;;;;;5.80;5.30;;;17.60;99.90;;;;;;5012048;28;20460;-74
2022/09/14 03:12:03;;;;;;;6.77;6.27;;;17.60;99.90;;;;;;5012683;28;20506;-74
2022/09/14 03:14:30;;;;;;;7.20;6.50;;;17.60;99.90;;;;;;5011363;28;20449;-74
2022/09/14 03:16:57;;;;;;;5.90;5.50;;;17.60;99.90;;;;;;5008945;28;20461;-73
2022/09/14 03:19:26;;;;;;;6.80;6.30;;;17.60;99.90;;;;;;5007637;28;20460;-73
2022/09/14 03:21:53;;;;;;;6.20;5.70;;;17.60;99.90;;;;;;5010313;28;20483;-73
2022/09/14 03:24:21;;;;;;;6.50;6.00;;;17.60;99.90;;;;;;5011675;28;20466;-73
2022/09/14 03:26:51;;;;;;;7.67;7.07;;;17.60;99.90;;;;;;5009064;28;20546;-73
2022/09/14 03:29:18;;;;;;;6.70;6.00;;;17.60;99.90;;;;;;5010522;28;20511;-73
2022/09/14 03:31:47;;;;;;;6.90;6.30;;;17.60;99.90;;;;;;5009861;28;20498;-73
2022/09/14 03:34:14;;;;;;;8.47;7.53;;;17.60;99.90;;;;;;5016272;28;20952;-72
2022/09/14 03:36:43;;;;;;;7.73;7.00;;;17.60;99.90;;;;;;5008794;28;21026;-74
2022/09/14 03:39:11;;;;;;;7.67;6.97;;;17.50;99.90;;;;;;5009649;28;20457;-72
2022/09/14 03:41:38;;;;;;;8.87;8.17;;;17.50;99.90;;;;;;5010602;28;20497;-73
2022/09/14 03:44:06;;;;;;;8.70;7.90;;;17.50;99.90;;;;;;5001153;28;20459;-76
2022/09/14 03:46:33;;;;;;;8.57;7.77;;;17.40;99.90;;;;;;5008079;28;20449;-72
2022/09/14 03:49:01;;;;;;;9.10;8.17;;;17.40;99.90;;;;;;5002535;28;20496;-73
2022/09/14 03:51:28;;;;;;;10.53;8.17;;;17.40;99.90;;;;;;5014683;28;20477;-72
2022/09/14 03:53:57;;;;;;;8.57;7.97;;;17.40;99.90;;;;;;5021919;28;20963;-72
2022/09/14 03:56:24;;;;;;;9.00;8.20;;;17.30;99.90;;;;;;5010498;28;20548;-73
2022/09/14 03:58:52;;;;;;;9.03;8.23;;;17.40;99.90;;;;;;5016020;28;20449;-72
2022/09/14 04:01:21;;;;;;;9.10;8.20;;;17.40;99.90;;;;;;5003066;28;20507;-73
2022/09/14 04:03:50;;;;;;;9.80;8.87;;;17.40;99.90;;;;;;5004856;28;20560;-71
2022/09/14 04:06:18;;;;;;;9.53;8.63;;;17.40;99.90;;;;;;5009561;28;20459;-73
2022/09/14 04:08:46;;;;;;;8.00;7.40;;;17.40;99.90;;;;;;5013598;28;20940;-74
2022/09/14 04:11:17;;;;;;;8.40;7.77;;;17.40;99.90;;;;;;5006368;28;20504;-74
2022/09/14 04:13:45;;;;;;;10.30;9.30;;;17.40;99.90;;;;;;5018772;28;20465;-73
2022/09/14 04:16:12;;;;;;;9.40;8.43;;;17.40;99.90;;;;;;5007406;28;20999;-73
2022/09/14 04:18:40;;;;;;;9.70;8.90;;;17.40;99.90;;;;;;5009008;28;20507;-74
2022/09/14 04:21:12;;;;;;;8.40;7.80;;;17.40;99.90;;;;;;5008576;28;20493;-73
2022/09/14 04:23:40;;;;;;;10.17;9.27;;;17.40;99.90;;;;;;5006176;28;20464;-75
2022/09/14 04:26:11;;;;;;;12.47;11.37;;;17.40;99.90;;;;;;5006873;28;20457;-75
2022/09/14 04:28:40;;;;;;;10.17;9.20;;;17.40;99.90;;;;;;5005477;28;20449;-75
2022/09/14 04:31:10;;;;;;;10.30;9.60;;;17.40;99.90;;;;;;5006311;28;20508;-67
2022/09/14 04:33:39;;;;;;;11.30;10.27;;;17.40;99.90;;;;;;5004111;28;20472;-68
2022/09/14 04:36:08;;;;;;;10.03;9.13;;;17.40;99.90;;;;;;5007415;28;20758;-67
2022/09/14 04:38:37;;;;;;;9.37;8.57;;;17.40;99.90;;;;;;5012407;28;20493;-79
2022/09/14 04:41:06;;;;;;;10.10;9.30;;;17.40;99.90;;;;;;5000775;28;21000;-74
2022/09/14 04:43:33;;;;;;;12.20;11.20;;;17.50;99.90;;;;;;5008322;28;20464;-74
2022/09/14 04:46:03;;;;;;;10.10;9.00;;;17.50;99.90;;;;;;5005669;28;20490;-74
2022/09/14 04:48:33;;;;;;;11.20;10.10;;;17.50;99.90;;;;;;5008882;28;20489;-73
2022/09/14 04:51:02;;;;;;;12.60;11.07;;;17.60;99.90;;;;;;5003291;28;20792;-74
2022/09/14 04:53:30;;;;;;;11.00;10.00;;;17.60;99.90;;;;;;5007635;28;20491;-74
2022/09/14 04:56:01;;;;;;;10.23;9.40;;;17.60;99.90;;;;;;5010771;28;20460;-74
2022/09/14 04:58:28;;;;;;;12.40;11.20;;;17.60;99.90;;;;;;5025127;28;20460;-74
2022/09/14 05:01:00;;;;;;;11.60;10.57;;;17.60;99.90;;;;;;5012207;28;20967;-82
2022/09/14 05:03:30;;;;;;;11.27;10.47;;;17.70;99.90;;;;;;5011900;28;20463;-74
2022/09/14 05:06:01;;;;;;;12.93;11.83;;;17.70;99.90;;;;;;5022176;28;20469;-74
2022/09/14 05:08:29;;;;;;;12.57;11.47;;;17.70;99.90;;;;;;5015861;28;20465;-74
2022/09/14 05:10:57;;;;;;;15.23;14.03;;;17.80;99.90;;;;;;5013950;28;20477;-74
2022/09/14 05:13:24;;;;;;;17.90;16.27;;;17.80;99.90;;;;;;5011902;28;20476;-74
2022/09/14 05:15:52;;;;;;;17.27;15.77;;;17.80;99.90;;;;;;5010089;28;20482;-74
2022/09/14 05:18:20;;;;;;;14.27;12.97;;;17.80;99.90;;;;;;5011239;28;20448;-73
2022/09/14 05:20:49;;;;;;;16.17;14.87;;;17.90;99.90;;;;;;5009999;28;20493;-73
2022/09/14 05:23:17;;;;;;;14.57;13.57;;;17.90;99.90;;;;;;5007274;28;20453;-73
2022/09/14 05:25:44;;;;;;;15.87;14.67;;;18.00;99.90;;;;;;5016830;28;21003;-73
2022/09/14 05:28:12;;;;;;;14.00;12.90;;;18.00;99.90;;;;;;5007133;28;20809;-73
2022/09/14 05:30:40;;;;;;;14.40;13.40;;;18.10;99.90;;;;;;5011970;28;20937;-74
2022/09/14 05:33:08;;;;;;;14.47;13.27;;;18.10;99.90;;;;;;5004414;28;20461;-74
2022/09/14 05:35:35;;;;;;;12.50;11.70;;;18.40;99.90;;;;;;5016248;28;20526;-73
2022/09/14 05:38:04;;;;;;;12.50;11.70;;;18.20;99.90;;;;;;5005936;28;20549;-74
2022/09/14 05:40:32;;;;;;;15.70;14.50;;;18.30;99.90;;;;;;5003458;28;20524;-74
2022/09/14 05:42:59;;;;;;;13.07;12.07;;;18.40;99.90;;;;;;4994696;28;20865;-74
2022/09/14 05:45:27;;;;;;;11.80;11.00;;;18.40;99.90;;;;;;5002968;28;20984;-73
2022/09/14 05:47:55;;;;;;;12.10;11.13;;;18.30;99.90;;;;;;5003862;28;22159;-73
2022/09/14 05:50:22;;;;;;;15.00;13.80;;;18.20;99.90;;;;;;5002578;28;20477;-73
2022/09/14 05:52:50;;;;;;;15.17;14.10;;;18.20;99.90;;;;;;5008183;28;20462;-74
2022/09/14 05:55:21;;;;;;;13.90;12.93;;;18.30;99.90;;;;;;5010085;28;20460;-73
2022/09/14 05:57:49;;;;;;;13.90;12.90;;;18.10;99.90;;;;;;5015749;28;20523;-73
2022/09/14 06:00:17;;;;;;;14.77;13.77;;;18.20;99.90;;;;;;5007422;28;20559;-74
2022/09/14 06:02:46;;;;;;;14.33;13.20;;;18.10;99.90;;;;;;5008148;28;20952;-74
2022/09/14 06:05:13;;;;;;;14.13;13.10;;;18.10;99.90;;;;;;4998089;28;20461;-72
2022/09/14 06:07:41;;;;;;;12.63;11.73;;;18.10;99.90;;;;;;5010805;28;20895;-73
2022/09/14 06:10:09;;;;;;;12.57;11.67;;;18.10;99.90;;;;;;5010397;28;20487;-74
2022/09/14 06:12:38;;;;;;;15.47;14.37;;;18.20;99.90;;;;;;5002180;28;20510;-74
2022/09/14 06:15:07;;;;;;;14.80;13.60;;;18.20;99.90;;;;;;5005098;28;20812;-74
2022/09/14 06:17:34;;;;;;;13.47;12.37;;;18.20;99.90;;;;;;5004658;28;20454;-74
2022/09/14 06:20:03;;;;;;;12.23;11.40;;;18.30;99.90;;;;;;5009429;28;20984;-73
2022/09/14 06:22:31;;;;;;;13.87;12.43;;;18.30;99.90;;;;;;5007597;28;20495;-75
2022/09/14 06:24:59;;;;;;;12.60;11.50;;;18.40;99.90;;;;;;5010405;28;20818;-75
2022/09/14 06:27:27;;;;;;;12.60;11.70;;;18.40;99.90;;;;;;5011037;28;20465;-75
2022/09/14 06:29:55;;;;;;;12.90;12.00;;;18.50;99.90;;;;;;5010006;28;20477;-74
2022/09/14 06:32:23;;;;;;;13.23;12.20;;;18.50;99.90;;;;;;5010069;28;20817;-75
2022/09/14 06:34:50;;;;;;;12.90;12.00;;;18.60;99.90;;;;;;5008494;28;20449;-75
2022/09/14 06:37:18;;;;;;;12.40;11.30;;;18.70;99.90;;;;;;5007888;28;20465;-74
2022/09/14 06:39:45;;;;;;;12.83;11.60;;;18.60;99.90;;;;;;5024193;28;20553;-75
2022/09/14 06:42:13;;;;;;;10.03;9.23;;;18.60;99.90;;;;;;5018749;28;20571;-74
2022/09/14 06:44:40;;;;;;;14.20;12.90;;;18.70;99.90;;;;;;5005875;28;20534;-75
2022/09/14 06:47:09;;;;;;;12.73;11.63;;;18.70;99.90;;;;;;5011173;28;20449;-75
2022/09/14 06:49:36;;;;;;;12.30;11.00;;;18.80;99.90;;;;;;5004885;28;20468;-75
2022/09/14 06:52:04;;;;;;;11.17;10.27;;;18.90;99.90;;;;;;5002209;28;20472;-75
2022/09/14 06:54:32;;;;;;;11.47;10.30;;;19.00;99.90;;;;;;5011200;28;20465;-75
2022/09/14 06:56:59;;;;;;;9.70;9.00;;;19.00;99.90;;;;;;5004543;28;20462;-75
2022/09/14 06:59:27;;;;;;;9.40;8.50;;;19.20;99.90;;;;;;5009152;28;20483;-74
2022/09/14 07:01:55;;;;;;;8.90;8.10;;;19.20;99.90;;;;;;5018836;28;20499;-75
2022/09/14 07:04:24;;;;;;;9.10;8.50;;;19.30;99.90;;;;;;5007724;28;20453;-72
2022/09/14 07:06:52;;;;;;;8.37;7.77;;;19.30;99.90;;;;;;5012296;28;20493;-73
2022/09/14 07:09:20;;;;;;;6.50;5.97;;;19.40;99.90;;;;;;5007033;28;20564;-74
2022/09/14 07:11:48;;;;;;;6.53;6.03;;;19.50;99.90;;;;;;5009600;28;20462;-73
2022/09/14 07:14:15;;;;;;;7.20;6.70;;;19.60;99.90;;;;;;5009066;28;20467;-73
2022/09/14 07:16:43;;;;;;;6.13;5.60;;;19.70;99.90;;;;;;5008571;28;20832;-73
2022/09/14 07:19:12;;;;;;;5.50;5.10;;;19.90;99.90;;;;;;5008321;28;20482;-73
2022/09/14 07:21:41;;;;;;;5.37;4.70;;;20.20;99.90;;;;;;5002685;28;20527;-74
2022/09/14 07:24:09;;;;;;;4.67;4.20;;;20.40;99.90;;;;;;5012694;28;20499;-73
2022/09/14 07:26:41;;;;;;;5.40;4.90;;;20.60;99.90;;;;;;5007378;28;20460;-74
2022/09/14 07:29:11;;;;;;;4.60;4.20;;;20.80;99.90;;;;;;5015367;28;20539;-73
2022/09/14 07:31:41;;;;;;;4.70;4.30;;;20.90;99.90;;;;;;4994391;28;20522;-73
2022/09/14 07:34:09;;;;;;;4.43;4.10;;;21.10;99.90;;;;;;5007092;28;20476;-74
2022/09/14 07:36:37;;;;;;;4.73;4.33;;;21.20;99.90;;;;;;5012752;28;20871;-73
2022/09/14 07:39:08;;;;;;;4.80;4.40;;;21.40;99.90;;;;;;5010378;28;20489;-74
2022/09/14 07:41:36;;;;;;;3.83;3.53;;;21.60;99.90;;;;;;5006959;28;20479;-74
2022/09/14 07:44:06;;;;;;;4.33;4.03;;;22.00;99.90;;;;;;5006853;28;20536;-74
2022/09/14 07:46:38;;;;;;;5.23;3.20;;;22.10;99.90;;;;;;5008141;28;20457;-73
2022/09/14 07:49:07;;;;;;;5.20;3.17;;;22.30;99.90;;;;;;5007404;28;20481;-79
2022/09/14 07:51:36;;;;;;;3.80;3.50;;;22.40;99.90;;;;;;5008921;28;20457;-74
2022/09/14 07:54:04;;;;;;;4.67;3.37;;;22.40;99.90;;;;;;5009142;28;20816;-73
2022/09/14 07:56:34;;;;;;;3.70;3.30;;;22.40;99.90;;;;;;5008978;28;20851;-78
2022/09/14 07:59:03;;;;;;;3.93;3.60;;;22.30;99.90;;;;;;5007555;28;20719;-74
2022/09/14 08:01:31;;;;;;;3.80;3.50;;;22.30;99.90;;;;;;5004475;28;20486;-73
2022/09/14 08:04:02;;;;;;;2.90;2.70;;;22.00;99.90;;;;;;4999398;28;20461;-73
2022/09/14 08:06:31;;;;;;;3.93;3.00;;;22.30;99.90;;;;;;5007368;28;21277;-72
2022/09/14 08:08:58;;;;;;;3.90;3.53;;;22.50;99.90;;;;;;5007989;28;21047;-73
2022/09/14 08:11:27;;;;;;;3.23;2.93;;;22.60;99.90;;;;;;5008163;28;20464;-73
2022/09/14 08:13:59;;;;;;;3.23;3.03;;;22.80;99.90;;;;;;5008308;28;20461;-72
2022/09/14 08:16:28;;;;;;;3.20;3.00;;;22.80;99.90;;;;;;5008217;28;20469;-71
2022/09/14 08:18:58;;;;;;;3.40;3.10;;;22.80;99.90;;;;;;5017374;28;20551;-73
2022/09/14 08:21:26;;;;;;;3.10;2.90;;;22.80;99.90;;;;;;5005415;28;20480;-77
2022/09/14 08:23:56;;;;;;;3.20;2.90;;;22.80;99.90;;;;;;5009084;28;20457;-72
2022/09/14 08:26:25;;;;;;;3.53;2.90;;;22.80;99.90;;;;;;5012355;28;20471;-72
2022/09/14 08:28:55;;;;;;;5.40;3.57;;;22.80;99.90;;;;;;5007226;28;20551;-72
2022/09/14 08:31:25;;;;;;;4.00;3.10;;;22.80;99.90;;;;;;5007217;28;20556;-72
2022/09/14 08:33:57;;;;;;;3.07;2.87;;;22.80;99.90;;;;;;5008843;28;20454;-71
2022/09/14 08:36:26;;;;;;;5.87;3.90;;;22.90;99.90;;;;;;5008702;28;20525;-71
2022/09/14 08:38:54;;;;;;;3.73;2.90;;;22.90;99.90;;;;;;5004488;28;21082;-71
2022/09/14 08:41:28;;;;;;;2.97;2.77;;;22.90;99.90;;;;;;5006084;28;20457;-73
2022/09/14 08:44:00;;;;;;;3.07;2.77;;;22.90;99.90;;;;;;4999346;28;20457;-72
2022/09/14 08:46:31;;;;;;;3.90;3.60;;;23.00;99.90;;;;;;5008997;28;20461;-72
2022/09/14 08:49:01;;;;;;;3.83;3.53;;;23.10;99.90;;;;;;5007959;28;20493;-71
2022/09/14 08:51:28;;;;;;;3.33;3.07;;;23.20;99.90;;;;;;5008392;28;20458;-72
2022/09/14 08:53:58;;;;;;;4.30;3.30;;;23.20;99.90;;;;;;5004188;28;20453;-76
2022/09/14 08:56:30;;;;;;;3.20;2.93;;;23.10;99.90;;;;;;5009270;28;20468;-71
2022/09/14 08:59:20;;;;;;;3.33;3.03;;;23.20;99.90;;;;;;5008046;28;21247;-70
2022/09/14 09:01:58;;;;;;;3.30;3.10;;;23.10;99.90;;;;;;5007877;28;20476;-70
2022/09/14 09:04:43;;;;;;;4.33;3.33;;;23.10;99.90;;;;;;5008633;28;20448;-70
2022/09/14 09:07:18;;;;;;;4.77;3.67;;;23.10;99.90;;;;;;4996968;28;21417;-70
2022/09/14 09:09:48;;;;;;;3.70;3.30;;;23.10;99.90;;;;;;5005062;28;20809;-70
2022/09/14 09:12:19;;;;;;;3.20;2.90;;;23.40;99.90;;;;;;5005864;28;20951;-70
2022/09/14 09:14:51;;;;;;;3.73;3.20;;;23.80;99.90;;;;;;5007693;28;20547;-70
2022/09/14 09:17:24;;;;;;;3.40;3.10;;;24.40;99.90;;;;;;5015737;28;20448;-70
2022/09/14 09:20:02;;;;;;;3.57;3.27;;;25.00;99.90;;;;;;5007327;28;20551;-70
2022/09/14 09:22:35;;;;;;;3.13;2.83;;;25.40;99.90;;;;;;5007148;28;20584;-70
2022/09/14 09:25:04;;;;;;;3.13;2.80;;;25.70;99.90;;;;;;5025100;28;20500;-71
2022/09/14 09:27:31;;;;;;;2.90;2.60;;;26.00;99.90;;;;;;5008575;28;20465;-70
2022/09/14 09:30:01;;;;;;;4.93;3.37;;;26.10;99.90;;;;;;5004130;28;20560;-71
2022/09/14 09:32:28;;;;;;;2.73;2.53;;;26.40;99.90;;;;;;5006698;28;20456;-71
2022/09/14 09:34:55;;;;;;;3.43;2.70;;;26.30;99.90;;;;;;5000958;28;20469;-72
2022/09/14 09:37:23;;;;;;;3.03;2.17;;;26.00;99.90;;;;;;5005567;28;20543;-78
2022/09/14 09:39:50;;;;;;;3.07;2.23;;;25.60;99.90;;;;;;5007935;28;20492;-78
2022/09/14 09:42:22;;;;;;;2.60;2.40;;;25.30;99.90;;;;;;5008666;28;20572;-78
2022/09/14 09:44:57;;;;;;;3.73;2.63;;;25.20;99.90;;;;;;5004207;28;20869;-77
2022/09/14 09:47:30;;;;;;;2.67;2.43;;;25.40;99.90;;;;;;5010137;28;20503;-78
2022/09/14 09:50:00;;;;;;;2.50;2.30;;;25.80;99.90;;;;;;5007050;28;20488;-78
2022/09/14 09:52:28;;;;;;;2.83;2.50;;;26.30;99.90;;;;;;5006639;28;20539;-76
2022/09/14 09:54:57;;;;;;;2.50;2.20;;;26.60;99.90;;;;;;5008729;28;20453;-79
2022/09/14 09:57:29;;;;;;;2.37;2.10;;;26.90;99.90;;;;;;5017115;28;20955;-75
2022/09/14 10:00:11;;;;;;;3.17;2.70;;;27.20;99.90;;;;;;5007304;28;20543;-75
2022/09/14 10:02:40;;;;;;;4.00;2.20;;;27.40;99.90;;;;;;5014082;28;20488;-77
2022/09/14 10:05:20;;;;;;;2.70;2.30;;;27.50;99.90;;;;;;5005075;28;20983;-74
2022/09/14 10:07:55;;;;;;;3.13;2.17;;;27.70;99.90;;;;;;5006554;28;20549;-74
2022/09/14 10:10:26;;;;;;;4.00;2.60;;;27.80;99.90;;;;;;5017603;28;20566;-74
2022/09/14 10:12:56;;;;;;;2.50;2.27;;;28.00;99.90;;;;;;5007240;28;20454;-73
2022/09/14 10:15:25;;;;;;;2.53;2.00;;;28.30;99.90;;;;;;5011003;28;20504;-73
2022/09/14 10:18:07;;;;;;;3.93;2.63;;;28.30;99.90;;;;;;5011336;28;20577;-72
2022/09/14 10:20:36;;;;;;;2.70;2.20;;;28.00;99.90;;;;;;5009916;28;20957;-72
2022/09/14 10:23:23;;;;;;;3.63;2.80;;;27.70;99.90;;;;;;5006916;28;20571;-72
2022/09/14 10:25:53;;;;;;;3.27;2.53;;;27.30;99.90;;;;;;5005829;28;20457;-70
2022/09/14 10:28:27;;;;;;;2.60;2.30;;;27.30;99.90;;;;;;5015899;28;20952;-71
2022/09/14 10:31:01;;;;;;;3.60;2.50;;;27.30;99.90;;;;;;5010397;28;20536;-71
2022/09/14 10:33:30;;;;;;;5.03;2.40;;;27.60;99.90;;;;;;5004216;28;20467;-71
2022/09/14 10:36:10;;;;;;;2.20;2.00;;;27.50;99.90;;;;;;5005216;28;20820;-71
2022/09/14 10:38:41;;;;;;;3.73;2.43;;;27.90;99.90;;;;;;4995333;28;20469;-71
2022/09/14 10:41:21;;;;;;;3.03;2.30;;;28.20;99.90;;;;;;5007391;28;20567;-70
2022/09/14 10:44:33;;;;;;;2.83;1.97;;;28.30;99.90;;;;;;5004990;28;20575;-70
2022/09/14 10:47:21;;;;;;;2.67;2.20;;;28.20;99.90;;;;;;4928388;29;20465;-72
2022/09/14 10:50:02;;;;;;;2.33;2.10;;;28.10;99.90;;;;;;4929775;29;20715;-70
2022/09/14 10:52:38;;;;;;;2.83;2.10;;;27.60;99.90;;;;;;4982415;28;20508;-70
2022/09/14 10:55:30;;;;;;;3.97;2.10;;;27.50;99.90;;;;;;5019387;28;20991;-72
2022/09/14 10:58:19;;;;;;;2.93;2.63;;;27.40;99.90;;;;;;5003909;28;20500;-71
2022/09/14 11:01:00;;;;;;;2.80;2.50;;;27.30;99.90;;;;;;5000797;28;20450;-70
2022/09/14 11:03:43;;;;;;;3.33;2.30;;;27.20;99.90;;;;;;5006032;28;20566;-70
2022/09/14 11:06:32;;;;;;;2.87;2.30;;;27.00;99.90;;;;;;5007703;28;20464;-70
2022/09/14 11:09:03;;;;;;;2.30;2.10;;;26.70;99.90;;;;;;5007507;28;20563;-70
2022/09/14 11:11:42;;;;;;;3.23;2.50;;;26.40;99.90;;;;;;5006911;28;20984;-70
2022/09/14 11:14:33;;;;;;;3.10;2.90;;;26.40;99.90;;;;;;5004932;28;20547;-70
2022/09/14 11:17:14;;;;;;;5.70;5.20;;;26.70;99.90;;;;;;5006178;28;20580;-70
2022/09/14 11:19:48;;;;;;;3.17;2.10;;;27.10;99.90;;;;;;5008987;28;21027;-70
2022/09/14 11:22:25;;;;;;;2.50;2.27;;;27.40;99.90;;;;;;5008295;28;20484;-70
2022/09/14 11:24:57;;;;;;;3.43;2.40;;;27.90;99.90;;;;;;5008764;28;20465;-70
2022/09/14 11:27:30;;;;;;;3.63;2.03;;;28.30;99.90;;;;;;5005411;28;20465;-70
2022/09/14 11:30:02;;;;;;;2.40;2.20;;;28.70;99.90;;;;;;4996952;28;21008;-71
2022/09/14 11:32:34;;;;;;;3.73;2.20;;;29.10;99.90;;;;;;5006557;28;20461;-71
2022/09/14 11:35:11;;;;;;;2.23;1.90;;;29.60;99.90;;;;;;5009301;28;20452;-70
2022/09/14 11:37:45;;;;;;;3.37;2.20;;;29.70;99.90;;;;;;5008506;28;20483;-70
2022/09/14 11:40:19;;;;;;;2.90;2.17;;;29.70;99.90;;;;;;5006663;28;20552;-70
2022/09/14 11:42:55;;;;;;;2.30;2.10;;;29.70;99.90;;;;;;5004641;28;20489;-70
2022/09/14 11:45:27;;;;;;;2.07;1.90;;;29.70;99.90;;;;;;5005828;28;20904;-69
2022/09/14 11:48:11;;;;;;;2.27;1.83;;;29.60;99.90;;;;;;4989646;28;20466;-70
2022/09/14 11:50:42;;;;;;;3.13;1.97;;;29.30;99.90;;;;;;5001072;28;20528;-69
2022/09/14 11:53:13;;;;;;;2.57;1.77;;;29.00;99.90;;;;;;5011978;28;20543;-69
2022/09/14 11:55:45;;;;;;;3.23;2.17;;;28.80;99.90;;;;;;5003455;28;20463;-70
2022/09/14 11:58:20;;;;;;;2.30;2.10;;;28.60;99.90;;;;;;5009838;28;20503;-69
2022/09/14 12:01:27;;;;;;;2.80;2.03;;;28.50;99.90;;;;;;5005350;28;20465;-69
2022/09/14 12:04:13;;;;;;;3.77;2.50;;;28.20;99.90;;;;;;5006298;28;20869;-70
2022/09/14 12:06:52;;;;;;;3.17;2.10;;;27.90;99.90;;;;;;5009111;28;20528;-70
2022/09/14 12:09:45;;;;;;;3.20;2.47;;;27.60;99.90;;;;;;5007584;28;20472;-70
2022/09/14 12:12:37;;;;;;;2.60;2.20;;;27.50;99.90;;;;;;4989895;28;20545;-70
2022/09/14 12:15:31;;;;;;;2.47;2.20;;;27.30;99.90;;;;;;5005552;28;20467;-70
2022/09/14 12:18:16;;;;;;;2.80;2.60;;;27.10;99.90;;;;;;5007339;28;20481;-70
2022/09/14 12:20:44;;;;;;;3.53;2.40;;;27.00;99.90;;;;;;5009078;28;20855;-70
2022/09/14 12:23:19;;;;;;;3.93;2.53;;;27.00;99.90;;;;;;5017221;28;20862;-70
2022/09/14 12:26:04;;;;;;;2.10;2.00;;;26.70;99.90;;;;;;5009577;28;20452;-70
2022/09/14 12:28:46;;;;;;;3.47;2.33;;;26.60;99.90;;;;;;5023369;28;20503;-70
2022/09/14 12:31:36;;;;;;;2.47;2.27;;;26.50;99.90;;;;;;5004049;28;20812;-69
2022/09/14 12:34:17;;;;;;;5.67;2.20;;;26.30;99.90;;;;;;5010411;28;22486;-70
2022/09/14 12:37:03;;;;;;;3.07;2.20;;;26.20;99.90;;;;;;5020011;28;20941;-70
2022/09/14 12:39:32;;;;;;;2.40;2.20;;;26.10;99.90;;;;;;5008657;28;20570;-70
2022/09/14 12:42:20;;;;;;;3.47;2.27;;;26.00;99.90;;;;;;5012775;28;20460;-70
2022/09/14 12:44:47;;;;;;;2.63;2.20;;;25.90;99.90;;;;;;5008409;28;20896;-70
2022/09/14 12:47:39;;;;;;;2.53;1.87;;;25.70;99.90;;;;;;5009001;28;20464;-70
2022/09/14 12:50:14;;;;;;;3.37;2.40;;;25.70;99.90;;;;;;4992220;28;20460;-70
2022/09/14 12:52:57;;;;;;;5.37;2.47;;;25.60;99.90;;;;;;5005686;28;20452;-70
2022/09/14 12:55:42;;;;;;;3.50;2.70;;;25.50;99.90;;;;;;5016124;28;20479;-69
2022/09/14 12:58:26;;;;;;;3.50;2.60;;;25.30;99.90;;;;;;5006951;28;20482;-70
2022/09/14 13:01:06;;;;;;;4.37;2.90;;;24.90;99.90;;;;;;5016546;28;20457;-70
2022/09/14 13:03:46;;;;;;;2.77;2.53;;;24.30;99.90;;;;;;5008381;28;20477;-70
2022/09/14 13:06:14;;;;;;;3.60;2.93;;;23.70;99.90;;;;;;5008698;28;20531;-71